createdAt,value
2022-10-19T00:00:01.905Z,4.73
2022-10-19T00:02:32.790Z,5.03
2022-10-19T00:05:00.571Z,4.37
2022-10-19T00:07:28.339Z,4.87
2022-10-19T00:09:56.075Z,4.37
2022-10-19T00:12:23.817Z,5.83
2022-10-19T00:14:52.843Z,4.37
2022-10-19T00:17:20.501Z,4.27
2022-10-19T00:19:48.181Z,3.93
2022-10-19T00:22:15.938Z,4.07
2022-10-19T00:24:43.841Z,4.13
2022-10-19T00:27:11.587Z,4.37
2022-10-19T00:29:39.387Z,4.20
2022-10-19T00:32:08.422Z,4.40
2022-10-19T00:34:36.104Z,5.00
2022-10-19T00:37:03.856Z,6.03
2022-10-19T00:39:31.542Z,3.70
2022-10-19T00:41:59.237Z,4.90
2022-10-19T00:44:59.603Z,6.10
2022-10-19T00:47:29.187Z,3.90
2022-10-19T00:49:59.046Z,3.43
2022-10-19T00:52:27.747Z,4.33
2022-10-19T00:54:57.707Z,4.97
2022-10-19T00:57:29.628Z,4.43
2022-10-19T00:59:58.287Z,7.57
2022-10-19T01:02:26.395Z,4.87
2022-10-19T01:04:55.755Z,4.57
2022-10-19T01:07:24.999Z,4.87
2022-10-19T01:09:53.160Z,5.20
2022-10-19T01:12:42.173Z,5.90
2022-10-19T01:15:19.939Z,5.20
2022-10-19T01:17:57.276Z,5.27
2022-10-19T01:21:11.731Z,4.30
2022-10-19T01:24:18.395Z,4.60
2022-10-19T01:27:11.712Z,5.00
2022-10-19T01:30:01.137Z,5.43
2022-10-19T01:32:39.507Z,4.40
2022-10-19T01:35:12.031Z,4.30
2022-10-19T01:37:48.373Z,3.93
2022-10-19T01:40:24.803Z,4.43
2022-10-19T01:43:00.923Z,4.20
2022-10-19T01:45:36.363Z,4.50
2022-10-19T01:48:08.935Z,4.60
2022-10-19T01:50:42.052Z,4.50
2022-10-19T01:53:12.792Z,5.17
2022-10-19T01:55:43.998Z,5.20
2022-10-19T01:58:15.465Z,5.77
2022-10-19T02:00:47.942Z,7.43
2022-10-19T02:03:16.790Z,5.50
2022-10-19T02:05:45.843Z,5.10
2022-10-19T02:08:17.908Z,5.13
2022-10-19T02:10:47.299Z,4.73
2022-10-19T02:13:17.359Z,5.20
2022-10-19T02:15:51.838Z,5.73
2022-10-19T02:18:25.075Z,7.40
2022-10-19T02:20:52.803Z,5.60
2022-10-19T02:23:23.262Z,7.50
2022-10-19T02:25:51.072Z,6.17
2022-10-19T02:28:19.260Z,5.80
2022-10-19T02:30:48.698Z,7.53
2022-10-19T02:33:17.132Z,6.60
2022-10-19T02:35:45.073Z,6.13
2022-10-19T02:38:16.819Z,6.17
2022-10-19T02:40:50.084Z,8.17
2022-10-19T02:43:21.341Z,6.90
2022-10-19T02:45:55.965Z,6.67
2022-10-19T02:48:25.951Z,8.23
2022-10-19T02:50:53.619Z,8.83
2022-10-19T02:53:21.664Z,9.10
2022-10-19T02:55:50.622Z,8.47
2022-10-19T02:58:18.343Z,7.87
2022-10-19T03:00:46.105Z,7.37
2022-10-19T03:03:15.259Z,8.37
2022-10-19T03:05:42.991Z,9.90
2022-10-19T03:08:10.659Z,7.77
2022-10-19T03:10:38.363Z,9.23
2022-10-19T03:13:06.333Z,6.97
2022-10-19T03:15:34.063Z,7.60
2022-10-19T03:18:01.756Z,8.13
2022-10-19T03:20:30.827Z,7.80
2022-10-19T03:22:58.550Z,17.60
2022-10-19T03:25:26.295Z,21.80
2022-10-19T03:27:54.233Z,23.27
2022-10-19T03:30:21.972Z,19.07
2022-10-19T03:32:49.691Z,15.40
2022-10-19T03:35:17.598Z,14.00
2022-10-19T03:37:46.767Z,10.90
2022-10-19T03:40:14.539Z,9.97
2022-10-19T03:42:42.271Z,10.27
2022-10-19T03:45:10.564Z,9.63
2022-10-19T03:47:38.252Z,19.13
2022-10-19T03:50:06.832Z,26.03
2022-10-19T03:52:34.531Z,14.43
2022-10-19T03:55:03.602Z,20.23
2022-10-19T03:57:31.520Z,40.13
2022-10-19T03:59:59.378Z,38.00
2022-10-19T04:02:27.036Z,21.13
2022-10-19T04:04:54.727Z,13.10
2022-10-19T04:07:22.406Z,9.53
2022-10-19T04:09:50.098Z,11.07
2022-10-19T04:12:19.249Z,11.53
2022-10-19T04:14:56.726Z,11.80
2022-10-19T04:17:25.887Z,9.70
2022-10-19T04:19:53.563Z,9.70
2022-10-19T04:22:21.282Z,10.50
2022-10-19T04:24:48.996Z,11.23
2022-10-19T04:27:16.791Z,12.67
2022-10-19T04:29:45.848Z,11.20
2022-10-19T04:32:13.558Z,12.87
2022-10-19T04:34:41.290Z,14.20
2022-10-19T04:37:08.984Z,11.40
2022-10-19T04:39:39.468Z,11.73
2022-10-19T04:42:07.166Z,10.73
2022-10-19T04:44:34.893Z,11.00
2022-10-19T04:47:03.973Z,11.40
2022-10-19T04:49:31.690Z,12.07
2022-10-19T04:51:59.404Z,12.87
2022-10-19T04:54:27.189Z,12.43
2022-10-19T04:56:54.859Z,11.57
2022-10-19T04:59:22.571Z,11.73
2022-10-19T05:01:50.319Z,11.47
2022-10-19T05:04:19.399Z,11.77
2022-10-19T05:06:47.140Z,11.37
2022-10-19T05:09:14.855Z,14.33
2022-10-19T05:11:42.538Z,11.47
2022-10-19T05:14:10.295Z,11.10
2022-10-19T05:16:37.969Z,11.17
2022-10-19T05:19:05.708Z,10.63
2022-10-19T05:21:34.776Z,11.23
2022-10-19T05:24:02.534Z,11.33
2022-10-19T05:26:30.420Z,11.10
2022-10-19T05:29:01.839Z,10.47
2022-10-19T05:31:31.744Z,10.53
2022-10-19T05:33:59.733Z,11.10
2022-10-19T05:36:29.447Z,12.30
2022-10-19T05:38:58.989Z,10.73
2022-10-19T05:41:27.451Z,12.43
2022-10-19T05:43:56.490Z,11.97
2022-10-19T05:46:25.608Z,12.03
2022-10-19T05:48:53.579Z,11.93
2022-10-19T05:51:23.412Z,11.50
2022-10-19T05:53:51.609Z,11.40
2022-10-19T05:56:22.663Z,12.47
2022-10-19T05:58:50.546Z,10.27
2022-10-19T06:01:19.882Z,14.57
2022-10-19T06:03:48.215Z,11.80
2022-10-19T06:06:15.912Z,14.03
2022-10-19T06:08:43.969Z,11.77
2022-10-19T06:11:15.278Z,11.73
2022-10-19T06:13:45.479Z,19.00
2022-10-19T06:16:14.752Z,15.27
2022-10-19T06:18:43.164Z,15.10
2022-10-19T06:21:13.361Z,13.23
2022-10-19T06:26:11.458Z,11.53
2022-10-19T06:28:40.614Z,12.40
2022-10-19T06:31:10.264Z,14.93
2022-10-19T06:33:39.935Z,11.93
2022-10-19T06:36:08.798Z,12.60
2022-10-19T06:38:36.543Z,13.33
2022-10-19T06:41:04.870Z,12.40
2022-10-19T06:43:32.911Z,13.23
2022-10-19T06:46:05.511Z,13.30
2022-10-19T06:48:34.635Z,14.13
2022-10-19T06:51:06.231Z,13.60
2022-10-19T06:53:34.803Z,13.90
2022-10-19T06:56:03.891Z,13.33
2022-10-19T06:58:31.798Z,14.03
2022-10-19T07:01:00.910Z,14.10
2022-10-19T07:03:30.503Z,14.20
2022-10-19T07:06:02.996Z,13.80
2022-10-19T07:08:32.692Z,13.13
2022-10-19T07:11:02.109Z,13.60
2022-10-19T07:13:31.595Z,14.67
2022-10-19T07:16:00.195Z,14.93
2022-10-19T07:18:28.280Z,14.00
2022-10-19T07:20:57.499Z,13.13
2022-10-19T07:23:28.943Z,14.70
2022-10-19T07:26:01.490Z,13.97
2022-10-19T07:28:30.183Z,13.77
2022-10-19T07:30:58.254Z,12.90
2022-10-19T07:33:26.286Z,12.90
2022-10-19T07:36:00.047Z,12.70
2022-10-19T07:38:29.982Z,13.63
2022-10-19T07:41:01.784Z,13.07
2022-10-19T07:43:29.500Z,13.87
2022-10-19T07:46:01.636Z,14.10
2022-10-19T07:48:29.671Z,12.57
2022-10-19T07:50:57.428Z,13.43
2022-10-19T07:53:25.328Z,13.03
2022-10-19T07:55:54.367Z,13.27
2022-10-19T07:58:22.137Z,12.10
2022-10-19T08:00:49.971Z,12.77
2022-10-19T08:06:07.417Z,13.50
2022-10-19T08:08:35.287Z,13.60
2022-10-19T08:11:09.509Z,14.00
2022-10-19T08:13:37.794Z,12.70
2022-10-19T08:16:05.893Z,12.73
2022-10-19T08:18:33.700Z,12.17
2022-10-19T08:21:03.512Z,12.93
2022-10-19T08:23:31.187Z,13.33
2022-10-19T08:25:59.315Z,12.83
2022-10-19T08:28:28.443Z,10.87
2022-10-19T08:30:58.857Z,10.00
2022-10-19T08:33:27.581Z,8.43
2022-10-19T08:35:55.278Z,8.40
2022-10-19T08:38:22.959Z,8.33
2022-10-19T08:40:50.675Z,9.00
2022-10-19T08:43:25.807Z,8.77
2022-10-19T08:46:02.411Z,9.00
2022-10-19T08:48:32.834Z,9.27
2022-10-19T08:51:01.884Z,8.57
2022-10-19T08:53:36.876Z,7.67
2022-10-19T08:56:26.809Z,7.57
2022-10-19T08:59:11.598Z,7.23
2022-10-19T09:01:47.074Z,7.90
2022-10-19T09:04:20.672Z,8.20
2022-10-19T09:06:58.093Z,7.50
2022-10-19T09:09:28.237Z,7.73
2022-10-19T09:12:01.907Z,7.03
2022-10-19T09:14:36.275Z,6.83
2022-10-19T09:17:13.266Z,6.50
2022-10-19T09:19:40.999Z,6.23
2022-10-19T09:22:15.880Z,7.00
2022-10-19T09:24:47.329Z,7.03
2022-10-19T09:27:21.062Z,6.70
2022-10-19T09:29:54.803Z,6.77
2022-10-19T09:32:27.982Z,6.57
2022-10-19T09:35:01.078Z,6.50
2022-10-19T09:40:02.640Z,6.63
2022-10-19T09:42:33.405Z,6.37
2022-10-19T09:45:03.729Z,7.40
2022-10-19T09:47:36.452Z,6.97
2022-10-19T09:50:14.890Z,7.83
2022-10-19T09:52:44.611Z,7.10
2022-10-19T09:55:23.935Z,6.83
2022-10-19T09:57:59.468Z,7.13
2022-10-19T10:00:34.950Z,8.00
2022-10-19T10:03:05.875Z,6.73
2022-10-19T10:05:35.840Z,7.17
2022-10-19T10:08:05.107Z,6.70
2022-10-19T10:10:37.927Z,6.67
2022-10-19T10:13:06.873Z,7.83
2022-10-19T10:15:44.058Z,7.70
2022-10-19T10:18:17.114Z,6.80
2022-10-19T10:20:58.798Z,6.97
2022-10-19T10:23:28.377Z,6.13
2022-10-19T10:25:57.901Z,5.57
2022-10-19T10:28:27.934Z,5.67
2022-10-19T10:31:01.129Z,5.50
2022-10-19T10:33:46.090Z,6.10
2022-10-19T10:36:14.294Z,6.77
2022-10-19T10:38:45.988Z,5.53
2022-10-19T10:41:15.810Z,5.93
2022-10-19T10:43:53.922Z,6.17
2022-10-19T10:46:25.753Z,5.50
2022-10-19T10:48:59.160Z,7.70
2022-10-19T10:51:34.411Z,6.43
2022-10-19T10:54:16.804Z,5.97
2022-10-19T10:56:46.798Z,6.37
2022-10-19T10:59:19.693Z,5.53
2022-10-19T11:01:59.701Z,5.90
2022-10-19T11:04:34.911Z,7.13
2022-10-19T11:07:15.800Z,5.80
2022-10-19T11:09:47.053Z,6.10
2022-10-19T11:12:19.224Z,5.83
2022-10-19T11:14:50.219Z,6.33
2022-10-19T11:17:21.754Z,5.93
2022-10-19T11:19:51.343Z,6.03
2022-10-19T11:22:27.203Z,6.47
2022-10-19T11:25:25.800Z,10.60
2022-10-19T11:28:04.939Z,5.97
2022-10-19T11:30:41.576Z,6.30
2022-10-19T11:33:23.268Z,5.83
2022-10-19T11:35:54.919Z,5.93
2022-10-19T11:38:42.489Z,6.10
2022-10-19T11:41:22.275Z,6.40
2022-10-19T11:44:04.008Z,5.80
2022-10-19T11:46:39.451Z,6.10
2022-10-19T11:49:22.744Z,6.27
2022-10-19T11:51:57.899Z,6.47
2022-10-19T11:54:44.106Z,5.70
2022-10-19T11:57:17.011Z,5.90
2022-10-19T12:00:14.789Z,6.00
2022-10-19T12:03:22.581Z,6.97
2022-10-19T12:06:01.715Z,6.33
2022-10-19T12:08:48.298Z,5.83
2022-10-19T12:11:29.079Z,5.60
2022-10-19T12:14:00.461Z,5.87
2022-10-19T12:16:36.587Z,5.97
2022-10-19T12:19:06.722Z,6.50
2022-10-19T12:21:38.747Z,6.20
2022-10-19T12:24:16.307Z,6.20
2022-10-19T12:26:45.823Z,6.90
2022-10-19T12:29:16.814Z,7.13
2022-10-19T12:31:45.623Z,11.43
2022-10-19T12:34:32.494Z,6.73
2022-10-19T12:37:08.375Z,6.27
2022-10-19T12:39:43.811Z,5.40
2022-10-19T12:42:20.013Z,5.00
2022-10-19T12:45:26.066Z,5.47
2022-10-19T12:48:20.002Z,5.13
2022-10-19T12:51:06.603Z,4.73
2022-10-19T12:53:38.055Z,4.40
2022-10-19T12:56:12.283Z,4.47
2022-10-19T12:58:48.165Z,4.90
2022-10-19T13:01:20.699Z,4.60
2022-10-19T13:03:51.583Z,4.90
2022-10-19T13:06:31.247Z,4.37
2022-10-19T13:09:01.673Z,4.30
2022-10-19T13:11:31.132Z,4.03
2022-10-19T13:14:01.615Z,5.60
2022-10-19T13:17:03.248Z,4.33
2022-10-19T13:19:31.096Z,8.00
2022-10-19T13:22:26.900Z,5.50
2022-10-19T13:25:23.437Z,4.27
2022-10-19T13:27:52.365Z,4.70
2022-10-19T13:31:03.381Z,4.47
2022-10-19T13:33:51.794Z,4.80
2022-10-19T13:36:20.976Z,7.43
2022-10-19T13:39:06.083Z,4.33
2022-10-19T13:41:54.411Z,4.10
2022-10-19T13:44:27.478Z,3.80
2022-10-19T13:47:08.162Z,3.80
2022-10-19T13:50:01.500Z,5.40
2022-10-19T13:52:51.055Z,4.00
2022-10-19T13:55:54.839Z,3.73
2022-10-19T13:58:51.348Z,3.67
2022-10-19T14:01:31.005Z,3.57
2022-10-19T14:04:14.774Z,3.10
2022-10-19T14:06:45.376Z,3.40
2022-10-19T14:09:47.180Z,3.73
2022-10-19T14:12:22.215Z,3.70
2022-10-19T14:14:51.929Z,3.73
2022-10-19T14:17:24.209Z,3.50
2022-10-19T14:19:54.390Z,3.90
2022-10-19T14:22:27.329Z,4.00
2022-10-19T14:25:03.154Z,3.30
2022-10-19T14:27:33.238Z,3.30
2022-10-19T14:30:01.418Z,3.70
2022-10-19T14:32:30.453Z,3.90
2022-10-19T14:37:32.581Z,4.20
2022-10-19T14:40:03.136Z,3.90
2022-10-19T14:42:44.391Z,4.80
2022-10-19T14:45:18.291Z,4.30
2022-10-19T14:47:57.211Z,4.37
2022-10-19T14:50:34.162Z,4.80
2022-10-19T14:53:09.533Z,5.17
2022-10-19T14:55:40.716Z,5.37
2022-10-19T14:58:14.761Z,4.97
2022-10-19T15:00:44.044Z,4.80
2022-10-19T15:03:18.407Z,5.37
2022-10-19T15:05:48.748Z,5.47
2022-10-19T15:08:25.037Z,5.10
2022-10-19T15:10:53.370Z,5.07
2022-10-19T15:13:27.578Z,4.60
2022-10-19T15:15:55.778Z,5.27
2022-10-19T15:18:47.642Z,4.53
2022-10-19T15:21:15.437Z,5.27
2022-10-19T15:23:45.547Z,4.67
2022-10-19T15:26:20.207Z,4.80
2022-10-19T15:28:50.278Z,5.73
2022-10-19T15:31:21.130Z,4.03
2022-10-19T15:33:51.630Z,4.30
2022-10-19T15:36:21.183Z,4.50
2022-10-19T15:38:50.534Z,4.30
2022-10-19T15:41:21.382Z,4.20
2022-10-19T15:43:52.978Z,7.03
2022-10-19T15:46:31.513Z,3.70
2022-10-19T15:49:02.140Z,5.97
2022-10-19T15:51:36.166Z,4.73
2022-10-19T15:54:06.867Z,4.10
2022-10-19T15:56:38.248Z,3.87
2022-10-19T15:59:12.112Z,8.30
2022-10-19T16:01:39.918Z,3.90
2022-10-19T16:04:07.621Z,3.93
2022-10-19T16:06:38.665Z,3.60
2022-10-19T16:09:08.238Z,3.73
2022-10-19T16:11:36.468Z,4.33
2022-10-19T16:14:04.257Z,4.00
2022-10-19T16:16:35.837Z,3.90
2022-10-19T16:19:03.970Z,4.33
2022-10-19T16:21:34.967Z,4.77
2022-10-19T16:24:02.766Z,6.80
2022-10-19T16:26:32.038Z,11.53
2022-10-19T16:29:00.292Z,7.90
2022-10-19T16:31:28.431Z,6.03
2022-10-19T16:33:57.517Z,4.80
2022-10-19T16:36:25.281Z,5.60
2022-10-19T16:38:53.056Z,4.63
2022-10-19T16:41:20.842Z,4.83
2022-10-19T16:43:49.055Z,7.53
2022-10-19T16:46:16.801Z,4.20
2022-10-19T16:48:44.484Z,4.27
2022-10-19T16:51:34.361Z,5.10
2022-10-19T16:54:02.150Z,8.17
2022-10-19T16:56:31.765Z,4.67
2022-10-19T16:59:01.344Z,4.50
2022-10-19T17:01:30.178Z,5.50
2022-10-19T17:03:58.135Z,5.03
2022-10-19T17:06:28.119Z,8.10
2022-10-19T17:11:45.532Z,5.23
2022-10-19T17:14:14.091Z,5.10
2022-10-19T17:16:41.851Z,5.10
2022-10-19T17:19:10.995Z,5.73
2022-10-19T17:21:42.200Z,6.33
2022-10-19T17:24:18.422Z,7.97
2022-10-19T17:26:50.252Z,8.03
2022-10-19T17:29:18.048Z,7.10
2022-10-19T17:31:46.054Z,7.83
2022-10-19T17:34:13.869Z,7.13
2022-10-19T17:36:45.389Z,7.13
2022-10-19T17:39:17.431Z,6.77
2022-10-19T17:41:45.731Z,5.60
2022-10-19T17:44:13.667Z,5.40
2022-10-19T17:46:41.507Z,6.80
2022-10-19T17:49:11.595Z,5.80
2022-10-19T17:51:40.274Z,5.00
2022-10-19T17:54:13.346Z,5.27
2022-10-19T17:56:44.763Z,5.50
2022-10-19T17:59:12.726Z,6.20
2022-10-19T18:01:40.828Z,5.73
2022-10-19T18:04:08.647Z,6.63
2022-10-19T18:06:38.066Z,5.90
2022-10-19T18:09:07.720Z,7.33
2022-10-19T18:11:38.732Z,6.50
2022-10-19T18:14:08.861Z,6.43
2022-10-19T18:16:38.485Z,6.07
2022-10-19T18:19:08.048Z,6.33
2022-10-19T18:21:38.732Z,6.60
2022-10-19T18:24:10.192Z,6.47
2022-10-19T18:26:41.919Z,6.50
2022-10-19T18:29:12.879Z,6.57
2022-10-19T18:31:41.514Z,6.87
2022-10-19T18:34:14.311Z,6.70
2022-10-19T18:36:42.260Z,7.03
2022-10-19T18:39:11.830Z,7.00
2022-10-19T18:41:40.470Z,7.00
2022-10-19T18:44:13.151Z,7.03
2022-10-19T18:46:41.220Z,6.40
2022-10-19T18:49:09.799Z,6.83
2022-10-19T18:51:37.687Z,6.90
2022-10-19T18:54:05.966Z,6.90
2022-10-19T18:56:36.369Z,7.47
2022-10-19T18:59:04.475Z,7.20
2022-10-19T19:01:33.581Z,7.03
2022-10-19T19:04:07.819Z,7.70
2022-10-19T19:06:36.209Z,7.70
2022-10-19T19:09:07.446Z,7.47
2022-10-19T19:11:38.065Z,7.20
2022-10-19T19:14:08.675Z,7.00
2022-10-19T19:16:39.116Z,7.23
2022-10-19T19:19:07.799Z,8.07
2022-10-19T19:21:36.499Z,7.97
2022-10-19T19:24:06.464Z,7.73
2022-10-19T19:26:38.104Z,7.30
2022-10-19T19:29:05.923Z,7.70
2022-10-19T19:31:34.019Z,7.57
2022-10-19T19:34:05.736Z,8.13
2022-10-19T19:36:33.638Z,8.03
2022-10-19T19:39:01.375Z,7.63
2022-10-19T19:41:31.133Z,8.53
2022-10-19T19:43:58.951Z,8.17
2022-10-19T19:46:27.491Z,8.60
2022-10-19T19:48:59.788Z,8.00
2022-10-19T19:51:30.030Z,8.50
2022-10-19T19:53:58.122Z,8.30
2022-10-19T19:56:26.129Z,8.73
2022-10-19T19:58:56.551Z,8.30
2022-10-19T20:01:25.168Z,8.80
2022-10-19T20:03:53.107Z,8.40
2022-10-19T20:06:23.670Z,8.67
2022-10-19T20:08:56.284Z,9.00
2022-10-19T20:11:25.516Z,8.83
2022-10-19T20:13:53.592Z,8.53
2022-10-19T20:16:26.548Z,8.73
2022-10-19T20:19:00.849Z,7.80
2022-10-19T20:21:28.589Z,9.33
2022-10-19T20:23:57.758Z,9.73
2022-10-19T20:26:26.312Z,9.00
2022-10-19T20:28:54.587Z,8.60
2022-10-19T20:31:22.629Z,8.67
2022-10-19T20:33:50.519Z,9.43
2022-10-19T20:36:20.899Z,8.53
2022-10-19T20:38:50.515Z,9.07
2022-10-19T20:41:20.942Z,8.60
2022-10-19T20:43:49.211Z,9.37
2022-10-19T20:46:18.692Z,9.03
2022-10-19T20:48:46.802Z,9.50
2022-10-19T20:51:17.151Z,8.40
2022-10-19T20:53:47.110Z,9.10
2022-10-19T20:56:16.287Z,8.00
2022-10-19T20:58:45.795Z,8.37
2022-10-19T21:01:15.837Z,12.43
2022-10-19T21:03:47.216Z,9.47
2022-10-19T21:06:15.213Z,10.63
2022-10-19T21:08:43.364Z,9.00
2022-10-19T21:11:15.348Z,8.63
2022-10-19T21:13:43.521Z,9.13
2022-10-19T21:16:14.432Z,8.63
2022-10-19T21:18:43.307Z,9.87
2022-10-19T21:21:13.180Z,8.67
2022-10-19T21:23:41.248Z,10.03
2022-10-19T21:26:08.957Z,11.73
2022-10-19T21:28:37.143Z,8.90
2022-10-19T21:31:05.450Z,9.27
2022-10-19T21:33:34.565Z,10.47
2022-10-19T21:36:03.159Z,10.07
2022-10-19T21:38:31.486Z,8.27
2022-10-19T21:40:59.684Z,9.33
2022-10-19T21:43:31.307Z,9.30
2022-10-19T21:45:59.129Z,8.37
2022-10-19T21:48:26.873Z,7.83
2022-10-19T21:50:55.968Z,8.37
2022-10-19T21:53:24.479Z,8.10
2022-10-19T21:55:52.972Z,9.20
2022-10-19T21:58:22.208Z,8.83
2022-10-19T22:00:53.878Z,8.90
2022-10-19T22:03:21.541Z,10.00
2022-10-19T22:05:52.680Z,8.30
2022-10-19T22:08:21.731Z,12.13
2022-10-19T22:10:49.457Z,8.07
2022-10-19T22:13:17.306Z,8.70
2022-10-19T22:15:45.477Z,9.17
2022-10-19T22:18:13.194Z,10.30
2022-10-19T22:20:41.262Z,9.47
2022-10-19T22:23:09.348Z,8.43
2022-10-19T22:25:38.434Z,9.77
2022-10-19T22:28:06.122Z,8.33
2022-10-19T22:30:33.878Z,9.60
2022-10-19T22:33:01.636Z,8.07
2022-10-19T22:35:29.328Z,9.20
2022-10-19T22:37:57.040Z,8.40
2022-10-19T22:40:24.703Z,7.37
2022-10-19T22:42:53.735Z,8.77
2022-10-19T22:45:21.435Z,8.20
2022-10-19T22:47:49.128Z,7.90
2022-10-19T22:50:16.846Z,7.73
2022-10-19T22:52:44.548Z,11.17
2022-10-19T22:55:12.241Z,8.37
2022-10-19T22:57:39.937Z,8.97
2022-10-19T23:00:10.398Z,9.30
2022-10-19T23:02:38.354Z,7.63
2022-10-19T23:05:06.879Z,7.90
2022-10-19T23:07:34.840Z,7.67
2022-10-19T23:10:02.683Z,8.43
2022-10-19T23:12:30.407Z,10.03
2022-10-19T23:14:58.209Z,7.90
2022-10-19T23:17:27.309Z,8.50
2022-10-19T23:19:55.048Z,8.43
2022-10-19T23:22:22.765Z,8.37
2022-10-19T23:24:50.438Z,12.00
2022-10-19T23:27:18.187Z,8.13
2022-10-19T23:29:45.877Z,7.47
2022-10-19T23:32:13.615Z,7.93
2022-10-19T23:34:44.566Z,8.87
2022-10-19T23:37:15.410Z,8.23
2022-10-19T23:39:43.120Z,10.00
2022-10-19T23:42:10.820Z,8.67
2022-10-19T23:44:38.483Z,8.30
2022-10-19T23:47:06.249Z,9.90
2022-10-19T23:49:33.968Z,8.87
2022-10-19T23:52:03.003Z,8.17
2022-10-19T23:54:30.738Z,8.60
2022-10-19T23:56:58.448Z,7.90
2022-10-19T23:59:26.354Z,8.13
